sensor_id;sensor_type;location;lat;lon;timestamp;P1;durP1;ratioP1;P2;durP2;ratioP2
12222;SDS011;6174;49.058;8.524;2022-07-30T00:00:06;2.70;;;2.50;;
12222;SDS011;6174;49.058;8.524;2022-07-30T00:02:35;3.00;;;2.70;;
12222;SDS011;6174;49.058;8.524;2022-07-30T00:05:02;3.47;;;2.40;;
12222;SDS011;6174;49.058;8.524;2022-07-30T00:07:29;3.00;;;2.80;;
12222;SDS011;6174;49.058;8.524;2022-07-30T00:09:56;3.03;;;2.73;;
12222;SDS011;6174;49.058;8.524;2022-07-30T00:12:25;2.90;;;2.70;;
12222;SDS011;6174;49.058;8.524;2022-07-30T00:14:51;3.03;;;2.60;;
12222;SDS011;6174;49.058;8.524;2022-07-30T00:17:18;2.83;;;2.63;;
12222;SDS011;6174;49.058;8.524;2022-07-30T00:19:45;3.10;;;2.90;;
12222;SDS011;6174;49.058;8.524;2022-07-30T00:22:12;3.10;;;2.80;;
12222;SDS011;6174;49.058;8.524;2022-07-30T00:24:39;3.10;;;2.90;;
12222;SDS011;6174;49.058;8.524;2022-07-30T00:27:06;4.27;;;2.90;;
12222;SDS011;6174;49.058;8.524;2022-07-30T00:29:34;4.40;;;3.17;;
12222;SDS011;6174;49.058;8.524;2022-07-30T00:32:01;3.17;;;2.70;;
12222;SDS011;6174;49.058;8.524;2022-07-30T00:34:28;2.77;;;2.57;;
12222;SDS011;6174;49.058;8.524;2022-07-30T00:36:55;2.93;;;2.73;;
12222;SDS011;6174;49.058;8.524;2022-07-30T00:39:22;2.73;;;2.53;;
12222;SDS011;6174;49.058;8.524;2022-07-30T00:41:52;2.70;;;2.50;;
12222;SDS011;6174;49.058;8.524;2022-07-30T00:44:20;3.17;;;2.90;;
12222;SDS011;6174;49.058;8.524;2022-07-30T00:46:49;2.70;;;2.50;;
12222;SDS011;6174;49.058;8.524;2022-07-30T00:49:16;2.80;;;2.60;;
12222;SDS011;6174;49.058;8.524;2022-07-30T00:51:42;3.03;;;2.70;;
12222;SDS011;6174;49.058;8.524;2022-07-30T00:54:09;2.83;;;2.60;;
12222;SDS011;6174;49.058;8.524;2022-07-30T00:56:36;2.97;;;2.67;;
12222;SDS011;6174;49.058;8.524;2022-07-30T00:59:03;2.53;;;2.33;;
12222;SDS011;6174;49.058;8.524;2022-07-30T01:01:30;2.70;;;2.50;;
12222;SDS011;6174;49.058;8.524;2022-07-30T01:03:59;3.23;;;2.93;;
12222;SDS011;6174;49.058;8.524;2022-07-30T01:06:26;2.60;;;2.40;;
12222;SDS011;6174;49.058;8.524;2022-07-30T01:08:53;3.33;;;2.47;;
12222;SDS011;6174;49.058;8.524;2022-07-30T01:11:20;3.10;;;2.80;;
12222;SDS011;6174;49.058;8.524;2022-07-30T01:13:49;2.90;;;2.70;;
12222;SDS011;6174;49.058;8.524;2022-07-30T01:16:16;2.97;;;2.57;;
12222;SDS011;6174;49.058;8.524;2022-07-30T01:18:43;3.40;;;3.10;;
12222;SDS011;6174;49.058;8.524;2022-07-30T01:21:31;3.47;;;3.10;;
12222;SDS011;6174;49.058;8.524;2022-07-30T01:24:05;3.20;;;2.97;;
12222;SDS011;6174;49.058;8.524;2022-07-30T01:26:41;2.80;;;2.47;;
12222;SDS011;6174;49.058;8.524;2022-07-30T01:29:09;2.90;;;2.70;;
12222;SDS011;6174;49.058;8.524;2022-07-30T01:31:38;3.10;;;2.90;;
12222;SDS011;6174;49.058;8.524;2022-07-30T01:34:07;2.70;;;2.50;;
12222;SDS011;6174;49.058;8.524;2022-07-30T01:36:37;3.10;;;2.90;;
12222;SDS011;6174;49.058;8.524;2022-07-30T01:39:05;3.20;;;3.00;;
12222;SDS011;6174;49.058;8.524;2022-07-30T01:41:32;3.83;;;3.00;;
12222;SDS011;6174;49.058;8.524;2022-07-30T01:44:01;3.40;;;3.03;;
12222;SDS011;6174;49.058;8.524;2022-07-30T01:46:30;2.90;;;2.70;;
12222;SDS011;6174;49.058;8.524;2022-07-30T01:48:58;3.03;;;2.73;;
12222;SDS011;6174;49.058;8.524;2022-07-30T01:51:27;3.23;;;2.93;;
12222;SDS011;6174;49.058;8.524;2022-07-30T01:53:56;3.30;;;3.00;;
12222;SDS011;6174;49.058;8.524;2022-07-30T01:56:25;3.13;;;2.83;;
12222;SDS011;6174;49.058;8.524;2022-07-30T01:58:52;3.03;;;2.83;;
12222;SDS011;6174;49.058;8.524;2022-07-30T02:01:22;3.07;;;2.80;;
12222;SDS011;6174;49.058;8.524;2022-07-30T02:03:49;4.77;;;3.43;;
12222;SDS011;6174;49.058;8.524;2022-07-30T02:06:16;3.20;;;2.90;;
12222;SDS011;6174;49.058;8.524;2022-07-30T02:08:47;3.30;;;3.00;;
12222;SDS011;6174;49.058;8.524;2022-07-30T02:11:19;3.30;;;3.00;;
12222;SDS011;6174;49.058;8.524;2022-07-30T02:14:00;3.37;;;3.10;;
12222;SDS011;6174;49.058;8.524;2022-07-30T02:16:36;3.17;;;2.97;;
12222;SDS011;6174;49.058;8.524;2022-07-30T02:19:06;4.53;;;3.17;;
12222;SDS011;6174;49.058;8.524;2022-07-30T02:21:37;3.20;;;2.90;;
12222;SDS011;6174;49.058;8.524;2022-07-30T02:24:09;3.23;;;2.97;;
12222;SDS011;6174;49.058;8.524;2022-07-30T02:26:40;4.90;;;3.20;;
12222;SDS011;6174;49.058;8.524;2022-07-30T02:29:08;3.23;;;3.03;;
12222;SDS011;6174;49.058;8.524;2022-07-30T02:31:37;3.60;;;3.30;;
12222;SDS011;6174;49.058;8.524;2022-07-30T02:34:05;3.60;;;3.30;;
12222;SDS011;6174;49.058;8.524;2022-07-30T02:36:34;3.43;;;3.00;;
12222;SDS011;6174;49.058;8.524;2022-07-30T02:39:02;3.27;;;3.03;;
12222;SDS011;6174;49.058;8.524;2022-07-30T02:41:30;3.50;;;3.20;;
12222;SDS011;6174;49.058;8.524;2022-07-30T02:43:58;3.43;;;3.13;;
12222;SDS011;6174;49.058;8.524;2022-07-30T02:46:26;3.80;;;3.50;;
12222;SDS011;6174;49.058;8.524;2022-07-30T02:48:57;3.27;;;2.97;;
12222;SDS011;6174;49.058;8.524;2022-07-30T02:51:24;3.70;;;3.40;;
12222;SDS011;6174;49.058;8.524;2022-07-30T02:53:52;3.80;;;3.50;;
12222;SDS011;6174;49.058;8.524;2022-07-30T02:56:20;3.73;;;3.43;;
12222;SDS011;6174;49.058;8.524;2022-07-30T02:58:47;3.50;;;3.20;;
12222;SDS011;6174;49.058;8.524;2022-07-30T03:01:17;3.50;;;3.20;;
12222;SDS011;6174;49.058;8.524;2022-07-30T03:03:46;4.30;;;3.13;;
12222;SDS011;6174;49.058;8.524;2022-07-30T03:06:16;3.53;;;3.23;;
12222;SDS011;6174;49.058;8.524;2022-07-30T03:08:44;3.90;;;3.50;;
12222;SDS011;6174;49.058;8.524;2022-07-30T03:11:12;3.50;;;3.30;;
12222;SDS011;6174;49.058;8.524;2022-07-30T03:13:41;3.27;;;3.07;;
12222;SDS011;6174;49.058;8.524;2022-07-30T03:16:09;3.90;;;3.50;;
12222;SDS011;6174;49.058;8.524;2022-07-30T03:18:37;3.80;;;3.50;;
12222;SDS011;6174;49.058;8.524;2022-07-30T03:21:08;4.80;;;3.50;;
12222;SDS011;6174;49.058;8.524;2022-07-30T03:23:38;4.80;;;3.50;;
12222;SDS011;6174;49.058;8.524;2022-07-30T03:26:06;3.60;;;3.40;;
12222;SDS011;6174;49.058;8.524;2022-07-30T03:28:35;4.10;;;3.70;;
12222;SDS011;6174;49.058;8.524;2022-07-30T03:31:04;4.00;;;3.60;;
12222;SDS011;6174;49.058;8.524;2022-07-30T03:33:34;4.30;;;3.90;;
12222;SDS011;6174;49.058;8.524;2022-07-30T03:36:01;4.83;;;3.50;;
12222;SDS011;6174;49.058;8.524;2022-07-30T03:38:29;3.87;;;3.50;;
12222;SDS011;6174;49.058;8.524;2022-07-30T03:40:58;4.13;;;3.77;;
12222;SDS011;6174;49.058;8.524;2022-07-30T03:43:25;5.63;;;4.40;;
12222;SDS011;6174;49.058;8.524;2022-07-30T03:45:53;4.27;;;3.97;;
12222;SDS011;6174;49.058;8.524;2022-07-30T03:48:20;4.33;;;3.97;;
12222;SDS011;6174;49.058;8.524;2022-07-30T03:50:48;6.10;;;4.10;;
12222;SDS011;6174;49.058;8.524;2022-07-30T03:53:16;4.47;;;4.07;;
12222;SDS011;6174;49.058;8.524;2022-07-30T03:55:47;6.03;;;4.57;;
12222;SDS011;6174;49.058;8.524;2022-07-30T03:58:16;4.50;;;4.10;;
12222;SDS011;6174;49.058;8.524;2022-07-30T04:00:45;4.03;;;3.70;;
12222;SDS011;6174;49.058;8.524;2022-07-30T04:03:13;4.40;;;4.00;;
12222;SDS011;6174;49.058;8.524;2022-07-30T04:05:48;4.90;;;4.40;;
12222;SDS011;6174;49.058;8.524;2022-07-30T04:08:15;4.93;;;4.53;;
12222;SDS011;6174;49.058;8.524;2022-07-30T04:10:42;3.93;;;3.67;;
12222;SDS011;6174;49.058;8.524;2022-07-30T04:13:09;5.03;;;4.03;;
12222;SDS011;6174;49.058;8.524;2022-07-30T04:15:42;7.27;;;4.20;;
12222;SDS011;6174;49.058;8.524;2022-07-30T04:18:12;5.00;;;4.23;;
12222;SDS011;6174;49.058;8.524;2022-07-30T04:20:43;5.50;;;4.93;;
12222;SDS011;6174;49.058;8.524;2022-07-30T04:23:12;5.90;;;4.60;;
12222;SDS011;6174;49.058;8.524;2022-07-30T04:25:40;5.47;;;4.80;;
12222;SDS011;6174;49.058;8.524;2022-07-30T04:28:08;6.93;;;4.70;;
12222;SDS011;6174;49.058;8.524;2022-07-30T04:30:37;5.30;;;4.80;;
12222;SDS011;6174;49.058;8.524;2022-07-30T04:33:06;4.90;;;4.20;;
12222;SDS011;6174;49.058;8.524;2022-07-30T04:35:33;5.00;;;4.50;;
12222;SDS011;6174;49.058;8.524;2022-07-30T04:38:01;4.83;;;4.43;;
12222;SDS011;6174;49.058;8.524;2022-07-30T04:40:28;5.20;;;4.63;;
12222;SDS011;6174;49.058;8.524;2022-07-30T04:42:55;5.40;;;4.73;;
12222;SDS011;6174;49.058;8.524;2022-07-30T04:45:22;4.87;;;4.47;;
12222;SDS011;6174;49.058;8.524;2022-07-30T04:47:50;4.77;;;4.37;;
12222;SDS011;6174;49.058;8.524;2022-07-30T04:50:19;5.47;;;4.73;;
12222;SDS011;6174;49.058;8.524;2022-07-30T04:52:48;5.83;;;4.43;;
12222;SDS011;6174;49.058;8.524;2022-07-30T04:55:15;5.93;;;4.40;;
12222;SDS011;6174;49.058;8.524;2022-07-30T04:57:46;5.73;;;4.10;;
12222;SDS011;6174;49.058;8.524;2022-07-30T05:00:16;5.77;;;4.00;;
12222;SDS011;6174;49.058;8.524;2022-07-30T05:02:43;4.97;;;4.20;;
12222;SDS011;6174;49.058;8.524;2022-07-30T05:05:12;5.17;;;4.17;;
12222;SDS011;6174;49.058;8.524;2022-07-30T05:07:41;4.40;;;4.00;;
12222;SDS011;6174;49.058;8.524;2022-07-30T05:10:09;5.20;;;4.40;;
12222;SDS011;6174;49.058;8.524;2022-07-30T05:12:37;4.93;;;4.00;;
12222;SDS011;6174;49.058;8.524;2022-07-30T05:15:04;4.20;;;3.80;;
12222;SDS011;6174;49.058;8.524;2022-07-30T05:17:33;5.27;;;4.30;;
12222;SDS011;6174;49.058;8.524;2022-07-30T05:20:00;4.17;;;3.77;;
12222;SDS011;6174;49.058;8.524;2022-07-30T05:22:29;5.50;;;4.40;;
12222;SDS011;6174;49.058;8.524;2022-07-30T05:24:56;4.40;;;4.00;;
12222;SDS011;6174;49.058;8.524;2022-07-30T05:27:22;4.67;;;4.27;;
12222;SDS011;6174;49.058;8.524;2022-07-30T05:29:49;5.40;;;4.27;;
12222;SDS011;6174;49.058;8.524;2022-07-30T05:32:16;5.73;;;4.30;;
12222;SDS011;6174;49.058;8.524;2022-07-30T05:34:43;7.60;;;4.20;;
12222;SDS011;6174;49.058;8.524;2022-07-30T05:37:10;4.80;;;3.70;;
12222;SDS011;6174;49.058;8.524;2022-07-30T05:39:38;4.20;;;3.80;;
12222;SDS011;6174;49.058;8.524;2022-07-30T05:42:05;6.47;;;3.97;;
12222;SDS011;6174;49.058;8.524;2022-07-30T05:44:31;4.20;;;3.87;;
12222;SDS011;6174;49.058;8.524;2022-07-30T05:46:58;4.23;;;3.83;;
12222;SDS011;6174;49.058;8.524;2022-07-30T05:49:25;4.43;;;3.80;;
12222;SDS011;6174;49.058;8.524;2022-07-30T05:51:52;6.50;;;3.73;;
12222;SDS011;6174;49.058;8.524;2022-07-30T05:54:19;6.07;;;4.20;;
12222;SDS011;6174;49.058;8.524;2022-07-30T05:56:47;4.13;;;3.73;;
12222;SDS011;6174;49.058;8.524;2022-07-30T05:59:14;5.23;;;4.10;;
12222;SDS011;6174;49.058;8.524;2022-07-30T06:01:41;5.10;;;3.67;;
12222;SDS011;6174;49.058;8.524;2022-07-30T06:04:08;3.73;;;3.43;;
12222;SDS011;6174;49.058;8.524;2022-07-30T06:06:35;4.47;;;4.07;;
12222;SDS011;6174;49.058;8.524;2022-07-30T06:09:02;4.93;;;3.80;;
12222;SDS011;6174;49.058;8.524;2022-07-30T06:11:28;4.30;;;3.90;;
12222;SDS011;6174;49.058;8.524;2022-07-30T06:13:57;4.40;;;3.87;;
12222;SDS011;6174;49.058;8.524;2022-07-30T06:16:23;5.27;;;3.70;;
12222;SDS011;6174;49.058;8.524;2022-07-30T06:18:50;4.77;;;3.50;;
12222;SDS011;6174;49.058;8.524;2022-07-30T06:21:17;3.70;;;3.40;;
12222;SDS011;6174;49.058;8.524;2022-07-30T06:23:43;4.30;;;3.40;;
12222;SDS011;6174;49.058;8.524;2022-07-30T06:26:10;3.87;;;3.57;;
12222;SDS011;6174;49.058;8.524;2022-07-30T06:28:37;3.87;;;3.47;;
12222;SDS011;6174;49.058;8.524;2022-07-30T06:31:05;4.10;;;3.80;;
12222;SDS011;6174;49.058;8.524;2022-07-30T06:33:32;5.40;;;3.73;;
12222;SDS011;6174;49.058;8.524;2022-07-30T06:35:59;4.10;;;3.70;;
12222;SDS011;6174;49.058;8.524;2022-07-30T06:38:26;4.37;;;3.60;;
12222;SDS011;6174;49.058;8.524;2022-07-30T06:40:53;5.37;;;3.70;;
12222;SDS011;6174;49.058;8.524;2022-07-30T06:43:19;4.73;;;3.70;;
12222;SDS011;6174;49.058;8.524;2022-07-30T06:45:46;4.33;;;3.70;;
12222;SDS011;6174;49.058;8.524;2022-07-30T06:48:14;4.77;;;3.47;;
12222;SDS011;6174;49.058;8.524;2022-07-30T06:50:41;7.27;;;3.40;;
12222;SDS011;6174;49.058;8.524;2022-07-30T06:53:08;4.53;;;3.33;;
12222;SDS011;6174;49.058;8.524;2022-07-30T06:55:35;4.90;;;3.40;;
12222;SDS011;6174;49.058;8.524;2022-07-30T06:58:02;3.73;;;3.33;;
12222;SDS011;6174;49.058;8.524;2022-07-30T07:00:28;3.90;;;3.60;;
12222;SDS011;6174;49.058;8.524;2022-07-30T07:02:55;4.13;;;3.73;;
12222;SDS011;6174;49.058;8.524;2022-07-30T07:05:24;3.73;;;3.40;;
12222;SDS011;6174;49.058;8.524;2022-07-30T07:07:52;5.57;;;3.70;;
12222;SDS011;6174;49.058;8.524;2022-07-30T07:10:19;3.67;;;3.37;;
12222;SDS011;6174;49.058;8.524;2022-07-30T07:12:46;4.57;;;3.40;;
12222;SDS011;6174;49.058;8.524;2022-07-30T07:15:13;4.50;;;3.50;;
12222;SDS011;6174;49.058;8.524;2022-07-30T07:17:40;5.97;;;3.60;;
12222;SDS011;6174;49.058;8.524;2022-07-30T07:20:07;4.63;;;3.50;;
12222;SDS011;6174;49.058;8.524;2022-07-30T07:22:36;7.00;;;3.67;;
12222;SDS011;6174;49.058;8.524;2022-07-30T07:25:03;4.23;;;3.30;;
12222;SDS011;6174;49.058;8.524;2022-07-30T07:27:31;4.13;;;3.50;;
12222;SDS011;6174;49.058;8.524;2022-07-30T07:29:57;5.27;;;3.93;;
12222;SDS011;6174;49.058;8.524;2022-07-30T07:32:24;3.80;;;3.20;;
12222;SDS011;6174;49.058;8.524;2022-07-30T07:34:51;4.53;;;3.53;;
12222;SDS011;6174;49.058;8.524;2022-07-30T07:37:18;4.53;;;3.37;;
12222;SDS011;6174;49.058;8.524;2022-07-30T07:39:46;5.00;;;3.43;;
12222;SDS011;6174;49.058;8.524;2022-07-30T07:42:13;5.17;;;3.50;;
12222;SDS011;6174;49.058;8.524;2022-07-30T07:44:40;4.23;;;3.37;;
12222;SDS011;6174;49.058;8.524;2022-07-30T07:47:06;3.53;;;3.27;;
12222;SDS011;6174;49.058;8.524;2022-07-30T07:49:33;4.07;;;3.43;;
12222;SDS011;6174;49.058;8.524;2022-07-30T07:52:00;4.27;;;2.90;;
12222;SDS011;6174;49.058;8.524;2022-07-30T07:54:27;5.50;;;3.40;;
12222;SDS011;6174;49.058;8.524;2022-07-30T07:56:55;4.03;;;3.70;;
12222;SDS011;6174;49.058;8.524;2022-07-30T07:59:22;5.43;;;3.63;;
12222;SDS011;6174;49.058;8.524;2022-07-30T08:01:49;5.67;;;3.50;;
12222;SDS011;6174;49.058;8.524;2022-07-30T08:04:16;4.77;;;3.63;;
12222;SDS011;6174;49.058;8.524;2022-07-30T08:06:43;5.77;;;3.80;;
12222;SDS011;6174;49.058;8.524;2022-07-30T08:09:10;4.67;;;3.63;;
12222;SDS011;6174;49.058;8.524;2022-07-30T08:11:36;4.67;;;4.03;;
12222;SDS011;6174;49.058;8.524;2022-07-30T08:14:05;4.63;;;4.20;;
12222;SDS011;6174;49.058;8.524;2022-07-30T08:16:31;5.70;;;4.07;;
12222;SDS011;6174;49.058;8.524;2022-07-30T08:18:58;6.80;;;3.67;;
12222;SDS011;6174;49.058;8.524;2022-07-30T08:21:28;3.83;;;3.30;;
12222;SDS011;6174;49.058;8.524;2022-07-30T08:23:55;3.40;;;3.10;;
12222;SDS011;6174;49.058;8.524;2022-07-30T08:26:21;7.97;;;3.87;;
12222;SDS011;6174;49.058;8.524;2022-07-30T08:28:48;4.53;;;3.60;;
12222;SDS011;6174;49.058;8.524;2022-07-30T08:31:16;4.57;;;3.37;;
12222;SDS011;6174;49.058;8.524;2022-07-30T08:33:43;3.30;;;3.00;;
12222;SDS011;6174;49.058;8.524;2022-07-30T08:36:10;4.17;;;3.10;;
12222;SDS011;6174;49.058;8.524;2022-07-30T08:38:37;5.00;;;2.90;;
12222;SDS011;6174;49.058;8.524;2022-07-30T08:41:04;4.33;;;3.13;;
12222;SDS011;6174;49.058;8.524;2022-07-30T08:43:31;6.47;;;3.53;;
12222;SDS011;6174;49.058;8.524;2022-07-30T08:45:59;3.77;;;3.20;;
12222;SDS011;6174;49.058;8.524;2022-07-30T08:48:29;4.47;;;3.30;;
12222;SDS011;6174;49.058;8.524;2022-07-30T08:50:57;3.22;;;2.67;;
12222;SDS011;6174;49.058;8.524;2022-07-30T08:53:24;3.83;;;2.77;;
12222;SDS011;6174;49.058;8.524;2022-07-30T08:55:51;4.80;;;3.00;;
12222;SDS011;6174;49.058;8.524;2022-07-30T08:58:21;4.40;;;2.60;;
12222;SDS011;6174;49.058;8.524;2022-07-30T09:00:53;3.88;;;2.70;;
12222;SDS011;6174;49.058;8.524;2022-07-30T09:03:20;4.88;;;3.00;;
12222;SDS011;6174;49.058;8.524;2022-07-30T09:05:48;4.60;;;2.83;;
12222;SDS011;6174;49.058;8.524;2022-07-30T09:08:15;4.25;;;2.75;;
12222;SDS011;6174;49.058;8.524;2022-07-30T09:10:42;3.53;;;2.67;;
12222;SDS011;6174;49.058;8.524;2022-07-30T09:13:21;4.15;;;2.63;;
12222;SDS011;6174;49.058;8.524;2022-07-30T09:15:50;2.92;;;2.65;;
12222;SDS011;6174;49.058;8.524;2022-07-30T09:18:25;4.70;;;2.80;;
12222;SDS011;6174;49.058;8.524;2022-07-30T09:20:54;4.88;;;2.55;;
12222;SDS011;6174;49.058;8.524;2022-07-30T09:23:21;2.53;;;2.33;;
12222;SDS011;6174;49.058;8.524;2022-07-30T09:25:48;3.90;;;2.50;;
12222;SDS011;6174;49.058;8.524;2022-07-30T09:28:16;3.95;;;2.55;;
12222;SDS011;6174;49.058;8.524;2022-07-30T09:30:56;4.05;;;2.33;;
12222;SDS011;6174;49.058;8.524;2022-07-30T09:33:30;4.43;;;2.38;;
12222;SDS011;6174;49.058;8.524;2022-07-30T09:36:00;3.13;;;2.10;;
12222;SDS011;6174;49.058;8.524;2022-07-30T09:38:27;6.93;;;2.83;;
12222;SDS011;6174;49.058;8.524;2022-07-30T09:40:56;3.42;;;2.25;;
12222;SDS011;6174;49.058;8.524;2022-07-30T09:43:23;4.25;;;2.63;;
12222;SDS011;6174;49.058;8.524;2022-07-30T09:45:54;3.13;;;2.63;;
12222;SDS011;6174;49.058;8.524;2022-07-30T09:48:24;2.85;;;2.65;;
12222;SDS011;6174;49.058;8.524;2022-07-30T09:50:53;4.10;;;2.70;;
12222;SDS011;6174;49.058;8.524;2022-07-30T09:53:22;3.88;;;3.05;;
12222;SDS011;6174;49.058;8.524;2022-07-30T09:55:49;5.00;;;2.78;;
12222;SDS011;6174;49.058;8.524;2022-07-30T09:58:16;4.72;;;2.85;;
12222;SDS011;6174;49.058;8.524;2022-07-30T10:00:46;4.20;;;2.65;;
12222;SDS011;6174;49.058;8.524;2022-07-30T10:03:13;3.22;;;2.50;;
12222;SDS011;6174;49.058;8.524;2022-07-30T10:05:48;3.83;;;2.60;;
12222;SDS011;6174;49.058;8.524;2022-07-30T10:08:16;2.95;;;2.50;;
12222;SDS011;6174;49.058;8.524;2022-07-30T10:10:45;3.28;;;2.60;;
12222;SDS011;6174;49.058;8.524;2022-07-30T10:13:14;3.83;;;2.85;;
12222;SDS011;6174;49.058;8.524;2022-07-30T10:15:43;2.95;;;2.70;;
12222;SDS011;6174;49.058;8.524;2022-07-30T10:18:10;3.17;;;2.50;;
12222;SDS011;6174;49.058;8.524;2022-07-30T10:20:37;5.05;;;2.80;;
12222;SDS011;6174;49.058;8.524;2022-07-30T10:23:05;5.13;;;3.08;;
12222;SDS011;6174;49.058;8.524;2022-07-30T10:25:32;4.32;;;2.60;;
12222;SDS011;6174;49.058;8.524;2022-07-30T10:28:01;2.97;;;2.45;;
12222;SDS011;6174;49.058;8.524;2022-07-30T10:30:29;4.82;;;2.80;;
12222;SDS011;6174;49.058;8.524;2022-07-30T10:32:56;4.93;;;2.92;;
12222;SDS011;6174;49.058;8.524;2022-07-30T10:35:24;4.68;;;3.00;;
12222;SDS011;6174;49.058;8.524;2022-07-30T10:37:51;3.10;;;2.78;;
12222;SDS011;6174;49.058;8.524;2022-07-30T10:40:24;3.35;;;3.05;;
12222;SDS011;6174;49.058;8.524;2022-07-30T10:46:08;3.75;;;3.05;;
12222;SDS011;6174;49.058;8.524;2022-07-30T10:48:41;3.38;;;3.05;;
12222;SDS011;6174;49.058;8.524;2022-07-30T10:51:08;3.13;;;2.90;;
12222;SDS011;6174;49.058;8.524;2022-07-30T10:53:36;4.03;;;2.70;;
12222;SDS011;6174;49.058;8.524;2022-07-30T10:56:11;3.90;;;2.90;;
12222;SDS011;6174;49.058;8.524;2022-07-30T10:58:58;4.03;;;2.80;;
12222;SDS011;6174;49.058;8.524;2022-07-30T11:04:28;4.38;;;3.13;;
12222;SDS011;6174;49.058;8.524;2022-07-30T11:07:24;3.10;;;2.80;;
12222;SDS011;6174;49.058;8.524;2022-07-30T11:09:56;4.82;;;2.80;;
12222;SDS011;6174;49.058;8.524;2022-07-30T11:15:17;3.90;;;2.63;;
12222;SDS011;6174;49.058;8.524;2022-07-30T11:18:02;2.70;;;2.50;;
12222;SDS011;6174;49.058;8.524;2022-07-30T11:20:32;3.00;;;2.55;;
12222;SDS011;6174;49.058;8.524;2022-07-30T11:23:08;3.63;;;2.42;;
12222;SDS011;6174;49.058;8.524;2022-07-30T11:25:38;3.72;;;2.53;;
12222;SDS011;6174;49.058;8.524;2022-07-30T11:28:06;2.95;;;2.22;;
12222;SDS011;6174;49.058;8.524;2022-07-30T11:30:53;3.00;;;2.40;;
12222;SDS011;6174;49.058;8.524;2022-07-30T11:33:21;4.47;;;2.30;;
12222;SDS011;6174;49.058;8.524;2022-07-30T11:41:25;5.00;;;2.63;;
12222;SDS011;6174;49.058;8.524;2022-07-30T11:46:51;3.28;;;2.38;;
12222;SDS011;6174;49.058;8.524;2022-07-30T11:49:18;2.10;;;2.00;;
12222;SDS011;6174;49.058;8.524;2022-07-30T11:51:46;2.40;;;2.20;;
12222;SDS011;6174;49.058;8.524;2022-07-30T11:54:14;3.55;;;2.53;;
12222;SDS011;6174;49.058;8.524;2022-07-30T11:56:48;3.00;;;2.15;;
12222;SDS011;6174;49.058;8.524;2022-07-30T11:59:16;2.50;;;2.30;;
12222;SDS011;6174;49.058;8.524;2022-07-30T12:01:47;2.22;;;2.13;;
12222;SDS011;6174;49.058;8.524;2022-07-30T12:04:15;2.78;;;2.15;;
12222;SDS011;6174;49.058;8.524;2022-07-30T12:06:42;2.67;;;2.13;;
12222;SDS011;6174;49.058;8.524;2022-07-30T12:09:10;2.53;;;2.25;;
12222;SDS011;6174;49.058;8.524;2022-07-30T12:11:40;2.50;;;2.30;;
12222;SDS011;6174;49.058;8.524;2022-07-30T12:14:07;3.58;;;2.35;;
12222;SDS011;6174;49.058;8.524;2022-07-30T12:16:34;3.17;;;2.22;;
12222;SDS011;6174;49.058;8.524;2022-07-30T12:19:01;2.45;;;2.17;;
12222;SDS011;6174;49.058;8.524;2022-07-30T12:21:29;2.20;;;2.00;;
12222;SDS011;6174;49.058;8.524;2022-07-30T12:23:57;2.95;;;2.08;;
12222;SDS011;6174;49.058;8.524;2022-07-30T12:26:26;2.85;;;2.40;;
12222;SDS011;6174;49.058;8.524;2022-07-30T12:28:54;2.80;;;2.20;;
12222;SDS011;6174;49.058;8.524;2022-07-30T12:31:22;3.08;;;2.08;;
12222;SDS011;6174;49.058;8.524;2022-07-30T12:33:49;2.75;;;2.10;;
12222;SDS011;6174;49.058;8.524;2022-07-30T12:36:23;3.45;;;1.90;;
12222;SDS011;6174;49.058;8.524;2022-07-30T12:38:51;2.97;;;2.00;;
12222;SDS011;6174;49.058;8.524;2022-07-30T12:41:18;3.58;;;2.00;;
12222;SDS011;6174;49.058;8.524;2022-07-30T12:43:48;6.93;;;1.92;;
12222;SDS011;6174;49.058;8.524;2022-07-30T12:46:17;2.20;;;2.00;;
12222;SDS011;6174;49.058;8.524;2022-07-30T12:48:49;3.80;;;2.00;;
12222;SDS011;6174;49.058;8.524;2022-07-30T12:51:17;4.50;;;2.20;;
12222;SDS011;6174;49.058;8.524;2022-07-30T12:53:45;3.05;;;1.73;;
12222;SDS011;6174;49.058;8.524;2022-07-30T12:56:13;2.88;;;1.90;;
12222;SDS011;6174;49.058;8.524;2022-07-30T12:58:41;3.33;;;2.00;;
12222;SDS011;6174;49.058;8.524;2022-07-30T13:01:10;3.17;;;1.80;;
12222;SDS011;6174;49.058;8.524;2022-07-30T13:03:37;2.10;;;1.83;;
12222;SDS011;6174;49.058;8.524;2022-07-30T13:06:12;3.50;;;2.17;;
12222;SDS011;6174;49.058;8.524;2022-07-30T13:08:47;1.75;;;1.65;;
12222;SDS011;6174;49.058;8.524;2022-07-30T13:11:16;2.42;;;2.00;;
12222;SDS011;6174;49.058;8.524;2022-07-30T13:13:44;2.63;;;1.67;;
12222;SDS011;6174;49.058;8.524;2022-07-30T13:16:13;1.73;;;1.63;;
12222;SDS011;6174;49.058;8.524;2022-07-30T13:18:40;3.08;;;1.90;;
12222;SDS011;6174;49.058;8.524;2022-07-30T13:21:07;1.85;;;1.63;;
12222;SDS011;6174;49.058;8.524;2022-07-30T13:23:35;4.03;;;1.80;;
12222;SDS011;6174;49.058;8.524;2022-07-30T13:26:03;3.42;;;2.00;;
12222;SDS011;6174;49.058;8.524;2022-07-30T13:28:30;2.42;;;1.80;;
12222;SDS011;6174;49.058;8.524;2022-07-30T13:30:58;1.80;;;1.70;;
12222;SDS011;6174;49.058;8.524;2022-07-30T13:33:27;1.55;;;1.45;;
12222;SDS011;6174;49.058;8.524;2022-07-30T13:35:54;2.70;;;1.70;;
12222;SDS011;6174;49.058;8.524;2022-07-30T13:38:21;2.00;;;1.88;;
12222;SDS011;6174;49.058;8.524;2022-07-30T13:40:47;3.22;;;1.70;;
12222;SDS011;6174;49.058;8.524;2022-07-30T13:43:14;3.53;;;1.80;;
12222;SDS011;6174;49.058;8.524;2022-07-30T13:45:41;1.83;;;1.70;;
12222;SDS011;6174;49.058;8.524;2022-07-30T13:48:08;1.75;;;1.65;;
12222;SDS011;6174;49.058;8.524;2022-07-30T13:50:40;1.80;;;1.67;;
12222;SDS011;6174;49.058;8.524;2022-07-30T13:53:07;2.70;;;1.80;;
12222;SDS011;6174;49.058;8.524;2022-07-30T13:55:37;2.05;;;1.90;;
12222;SDS011;6174;49.058;8.524;2022-07-30T13:58:05;2.25;;;1.55;;
12222;SDS011;6174;49.058;8.524;2022-07-30T14:00:32;4.95;;;2.22;;
12222;SDS011;6174;49.058;8.524;2022-07-30T14:03:01;1.83;;;1.60;;
12222;SDS011;6174;49.058;8.524;2022-07-30T14:05:29;1.80;;;1.70;;
12222;SDS011;6174;49.058;8.524;2022-07-30T14:07:58;3.05;;;1.95;;
12222;SDS011;6174;49.058;8.524;2022-07-30T14:10:25;1.80;;;1.70;;
12222;SDS011;6174;49.058;8.524;2022-07-30T14:12:55;2.03;;;1.80;;
12222;SDS011;6174;49.058;8.524;2022-07-30T14:15:24;1.95;;;1.75;;
12222;SDS011;6174;49.058;8.524;2022-07-30T14:17:52;2.25;;;1.50;;
12222;SDS011;6174;49.058;8.524;2022-07-30T14:20:27;2.70;;;1.80;;
12222;SDS011;6174;49.058;8.524;2022-07-30T14:22:58;4.22;;;1.88;;
12222;SDS011;6174;49.058;8.524;2022-07-30T14:25:25;2.20;;;1.98;;
12222;SDS011;6174;49.058;8.524;2022-07-30T14:27:52;1.65;;;1.52;;
12222;SDS011;6174;49.058;8.524;2022-07-30T14:30:19;1.95;;;1.60;;
12222;SDS011;6174;49.058;8.524;2022-07-30T14:32:51;1.73;;;1.38;;
12222;SDS011;6174;49.058;8.524;2022-07-30T14:35:18;1.58;;;1.45;;
12222;SDS011;6174;49.058;8.524;2022-07-30T14:37:45;1.70;;;1.60;;
12222;SDS011;6174;49.058;8.524;2022-07-30T14:40:13;2.08;;;1.52;;
12222;SDS011;6174;49.058;8.524;2022-07-30T14:42:40;1.50;;;1.40;;
12222;SDS011;6174;49.058;8.524;2022-07-30T14:45:07;1.48;;;1.38;;
12222;SDS011;6174;49.058;8.524;2022-07-30T14:47:34;2.00;;;1.65;;
12222;SDS011;6174;49.058;8.524;2022-07-30T14:50:02;1.45;;;1.35;;
12222;SDS011;6174;49.058;8.524;2022-07-30T14:52:30;1.90;;;1.70;;
12222;SDS011;6174;49.058;8.524;2022-07-30T14:54:59;3.33;;;1.48;;
12222;SDS011;6174;49.058;8.524;2022-07-30T14:57:30;2.15;;;1.88;;
12222;SDS011;6174;49.058;8.524;2022-07-30T14:59:57;1.50;;;1.40;;
12222;SDS011;6174;49.058;8.524;2022-07-30T15:02:24;1.60;;;1.50;;
12222;SDS011;6174;49.058;8.524;2022-07-30T15:04:53;1.60;;;1.50;;
12222;SDS011;6174;49.058;8.524;2022-07-30T15:07:20;1.58;;;1.48;;
12222;SDS011;6174;49.058;8.524;2022-07-30T15:09:47;1.85;;;1.40;;
12222;SDS011;6174;49.058;8.524;2022-07-30T15:12:14;1.40;;;1.33;;
12222;SDS011;6174;49.058;8.524;2022-07-30T15:14:42;1.98;;;1.40;;
12222;SDS011;6174;49.058;8.524;2022-07-30T15:17:13;1.70;;;1.30;;
12222;SDS011;6174;49.058;8.524;2022-07-30T15:19:40;1.58;;;1.48;;
12222;SDS011;6174;49.058;8.524;2022-07-30T15:22:07;1.50;;;1.40;;
12222;SDS011;6174;49.058;8.524;2022-07-30T15:24:33;1.40;;;1.30;;